createdAt,value
2022-09-02T00:01:43.775Z,59.10
2022-09-02T00:04:19.421Z,59.20
2022-09-02T00:06:47.878Z,59.10
2022-09-02T00:09:18.507Z,59.00
2022-09-02T00:11:48.333Z,59.10
2022-09-02T00:14:27.376Z,59.00
2022-09-02T00:16:55.237Z,59.20
2022-09-02T00:19:25.150Z,59.00
2022-09-02T00:21:55.964Z,59.00
2022-09-02T00:24:24.895Z,59.00
2022-09-02T00:26:51.832Z,59.00
2022-09-02T00:29:25.285Z,58.90
2022-09-02T00:31:52.340Z,59.00
2022-09-02T00:34:20.847Z,59.00
2022-09-02T00:36:47.847Z,58.90
2022-09-02T00:39:15.288Z,58.90
2022-09-02T00:41:44.857Z,58.90
2022-09-02T00:44:16.900Z,59.00
2022-09-02T00:46:44.877Z,58.90
2022-09-02T00:49:29.917Z,58.80
2022-09-02T00:52:08.476Z,59.00
2022-09-02T00:54:49.274Z,58.80
2022-09-02T00:57:22.229Z,58.70
2022-09-02T01:00:06.454Z,58.60
2022-09-02T01:02:34.336Z,58.60
2022-09-02T01:05:03.834Z,58.50
2022-09-02T01:07:34.466Z,58.50
2022-09-02T01:10:04.054Z,58.50
2022-09-02T01:12:32.137Z,58.50
2022-09-02T01:14:59.380Z,58.50
2022-09-02T01:17:26.685Z,58.50
2022-09-02T01:20:08.250Z,58.40
2022-09-02T01:22:35.184Z,58.50
2022-09-02T01:25:14.632Z,58.40
2022-09-02T01:27:42.063Z,58.50
2022-09-02T01:30:13.637Z,58.50
2022-09-02T01:32:40.688Z,58.50
2022-09-02T01:35:08.228Z,58.70
2022-09-02T01:37:35.580Z,58.80
2022-09-02T01:40:03.272Z,58.80
2022-09-02T01:42:30.631Z,58.70
2022-09-02T01:44:57.633Z,58.70
2022-09-02T01:47:26.823Z,58.70
2022-09-02T01:49:54.650Z,58.80
2022-09-02T01:52:24.516Z,58.80
2022-09-02T01:54:51.535Z,58.80
2022-09-02T01:57:18.924Z,58.70
2022-09-02T01:59:46.596Z,58.90
2022-09-02T02:02:19.108Z,59.00
2022-09-02T02:04:48.247Z,59.00
2022-09-02T02:07:19.420Z,59.50
2022-09-02T02:09:46.983Z,59.00
2022-09-02T02:12:16.530Z,59.00
2022-09-02T02:14:44.051Z,59.00
2022-09-02T02:17:11.044Z,59.10
2022-09-02T02:19:40.091Z,59.10
2022-09-02T02:22:07.438Z,59.10
2022-09-02T02:24:34.430Z,59.10
2022-09-02T02:27:02.131Z,59.10
2022-09-02T02:29:29.966Z,59.20
2022-09-02T02:31:57.755Z,59.20
2022-09-02T02:34:24.927Z,59.30
2022-09-02T02:36:52.097Z,59.30
2022-09-02T02:39:20.712Z,59.40
2022-09-02T02:41:48.123Z,59.40
2022-09-02T02:44:16.385Z,59.50
2022-09-02T02:46:44.298Z,59.50
2022-09-02T02:49:12.317Z,59.60
2022-09-02T02:51:39.795Z,59.60
2022-09-02T02:54:07.015Z,59.70
2022-09-02T02:56:34.556Z,59.70
2022-09-02T02:59:04.168Z,59.90
2022-09-02T03:01:34.106Z,60.00
2022-09-02T03:04:01.199Z,60.10
2022-09-02T03:06:29.671Z,60.20
2022-09-02T03:08:57.687Z,60.40
2022-09-02T03:11:26.580Z,60.50
2022-09-02T03:13:54.091Z,60.60
2022-09-02T03:16:21.551Z,60.70
2022-09-02T03:18:50.277Z,61.10
2022-09-02T03:21:18.262Z,61.30
2022-09-02T03:23:46.804Z,61.40
2022-09-02T03:26:18.941Z,61.70
2022-09-02T03:28:49.094Z,62.00
2022-09-02T03:31:21.674Z,62.20
2022-09-02T03:33:48.641Z,62.40
2022-09-02T03:36:31.886Z,62.50
2022-09-02T03:39:00.393Z,63.10
2022-09-02T03:41:29.487Z,62.80
2022-09-02T03:43:57.855Z,63.10
2022-09-02T03:46:25.640Z,63.20
2022-09-02T03:48:52.672Z,63.30
2022-09-02T03:51:23.388Z,63.60
2022-09-02T03:53:51.049Z,63.80
2022-09-02T03:56:18.515Z,63.90
2022-09-02T03:58:49.374Z,64.00
2022-09-02T04:01:27.961Z,64.20
2022-09-02T04:03:57.952Z,64.50
2022-09-02T04:06:26.322Z,64.40
2022-09-02T04:09:02.807Z,64.80
2022-09-02T04:11:31.547Z,64.70
2022-09-02T04:13:59.611Z,64.90
2022-09-02T04:16:31.651Z,65.00
2022-09-02T04:19:05.368Z,65.10
2022-09-02T04:21:37.291Z,65.30
2022-09-02T04:24:10.597Z,65.30
2022-09-02T04:26:44.974Z,65.60
2022-09-02T04:29:13.586Z,65.50
2022-09-02T04:31:42.048Z,65.50
2022-09-02T04:34:10.435Z,65.50
2022-09-02T04:36:37.819Z,65.50
2022-09-02T04:39:09.393Z,65.60
2022-09-02T04:41:37.831Z,65.70
2022-09-02T04:44:08.511Z,65.70
2022-09-02T04:46:41.645Z,65.60
2022-09-02T04:49:13.312Z,65.60
2022-09-02T04:51:42.836Z,65.60
2022-09-02T04:54:11.045Z,65.50
2022-09-02T04:56:41.239Z,65.50
2022-09-02T04:59:10.057Z,65.40
2022-09-02T05:01:39.129Z,65.40
2022-09-02T05:04:12.311Z,65.30
2022-09-02T05:06:44.816Z,65.30
2022-09-02T05:09:16.744Z,65.30
2022-09-02T05:11:44.826Z,65.20
2022-09-02T05:14:13.018Z,65.20
2022-09-02T05:16:40.758Z,65.30
2022-09-02T05:19:14.671Z,65.30
2022-09-02T05:21:47.139Z,65.30
2022-09-02T05:24:36.312Z,65.30
2022-09-02T05:27:07.642Z,65.40
2022-09-02T05:29:36.345Z,65.40
2022-09-02T05:32:04.280Z,65.40
2022-09-02T05:34:33.495Z,65.40
2022-09-02T05:37:03.596Z,65.40
2022-09-02T05:39:32.522Z,65.20
2022-09-02T05:42:00.851Z,65.20
2022-09-02T05:44:30.753Z,65.10
2022-09-02T05:46:58.675Z,65.00
2022-09-02T05:49:26.980Z,64.80
2022-09-02T05:52:00.468Z,64.60
2022-09-02T05:54:38.157Z,64.50
2022-09-02T05:57:15.026Z,64.40
2022-09-02T05:59:56.735Z,64.30
2022-09-02T06:02:29.871Z,64.10
2022-09-02T06:04:57.032Z,64.00
2022-09-02T06:07:26.281Z,64.00
2022-09-02T06:09:56.467Z,64.00
2022-09-02T06:12:26.198Z,63.80
2022-09-02T06:14:54.260Z,63.60
2022-09-02T06:17:22.748Z,63.40
2022-09-02T06:19:52.495Z,63.10
2022-09-02T06:22:22.968Z,63.00
2022-09-02T06:24:50.359Z,62.80
2022-09-02T06:27:21.510Z,62.60
2022-09-02T06:29:54.135Z,62.10
2022-09-02T06:32:24.052Z,61.70
2022-09-02T06:34:56.794Z,61.40
2022-09-02T06:37:26.073Z,61.10
2022-09-02T06:39:53.481Z,60.80
2022-09-02T06:42:25.811Z,60.60
2022-09-02T06:45:19.218Z,60.50
2022-09-02T06:47:47.741Z,59.90
2022-09-02T06:50:15.392Z,59.60
2022-09-02T06:52:43.500Z,59.40
2022-09-02T06:55:12.838Z,59.20
2022-09-02T06:57:40.110Z,59.00
2022-09-02T07:00:11.561Z,58.90
2022-09-02T07:02:38.567Z,58.70
2022-09-02T07:05:15.607Z,58.50
2022-09-02T07:07:48.020Z,58.50
2022-09-02T07:10:16.395Z,58.20
2022-09-02T07:12:49.241Z,57.80
2022-09-02T07:15:17.686Z,57.40
2022-09-02T07:17:44.985Z,57.00
2022-09-02T07:20:23.201Z,56.60
2022-09-02T07:22:56.181Z,56.20
2022-09-02T07:25:25.672Z,55.80
2022-09-02T07:27:53.222Z,55.40
2022-09-02T07:30:20.575Z,54.80
2022-09-02T07:32:53.200Z,54.20
2022-09-02T07:35:23.263Z,53.90
2022-09-02T07:37:52.686Z,53.60
2022-09-02T07:40:22.955Z,53.40
2022-09-02T07:42:51.459Z,53.30
2022-09-02T07:45:21.069Z,53.30
2022-09-02T07:47:49.609Z,53.20
2022-09-02T07:50:20.250Z,53.10
2022-09-02T07:52:56.850Z,53.30
2022-09-02T07:55:25.641Z,54.00
2022-09-02T07:57:57.243Z,54.30
2022-09-02T08:00:27.676Z,54.20
2022-09-02T08:02:59.549Z,54.30
2022-09-02T08:05:34.032Z,53.70
2022-09-02T08:08:02.096Z,52.50
2022-09-02T08:10:30.855Z,51.70
2022-09-02T08:13:01.218Z,50.80
2022-09-02T08:15:30.179Z,49.70
2022-09-02T08:17:58.895Z,48.60
2022-09-02T08:20:26.100Z,47.50
2022-09-02T08:23:01.058Z,46.90
2022-09-02T08:25:40.698Z,46.40
2022-09-02T08:28:08.376Z,44.90
2022-09-02T08:30:35.544Z,44.00
2022-09-02T08:33:02.599Z,42.70
2022-09-02T08:35:29.567Z,41.30
2022-09-02T08:37:59.986Z,40.10
2022-09-02T08:40:40.916Z,38.70
2022-09-02T08:43:29.285Z,36.40
2022-09-02T08:46:03.199Z,35.60
2022-09-02T08:48:53.197Z,35.10
2022-09-02T08:51:37.589Z,33.30
2022-09-02T08:54:31.748Z,32.70
2022-09-02T08:56:59.732Z,32.50
2022-09-02T08:59:30.795Z,32.20
2022-09-02T09:02:13.318Z,30.50
2022-09-02T09:05:20.313Z,29.20
2022-09-02T09:08:09.616Z,28.60
2022-09-02T09:10:58.826Z,28.80
2022-09-02T09:13:39.425Z,28.60
2022-09-02T09:16:26.826Z,28.10
2022-09-02T09:19:16.667Z,27.10
2022-09-02T09:21:44.685Z,26.70
2022-09-02T09:24:26.946Z,26.60
2022-09-02T09:26:57.811Z,25.50
2022-09-02T09:29:25.026Z,25.80
2022-09-02T09:31:59.187Z,24.60
2022-09-02T09:34:52.483Z,23.70
2022-09-02T09:37:50.106Z,24.30
2022-09-02T09:40:30.905Z,23.60
2022-09-02T09:43:06.208Z,23.80
2022-09-02T09:45:49.875Z,23.90
2022-09-02T09:48:16.993Z,23.30
2022-09-02T09:50:46.467Z,23.50
2022-09-02T09:53:33.017Z,22.50
2022-09-02T09:56:24.005Z,22.20
2022-09-02T09:58:51.989Z,23.20
2022-09-02T10:01:40.048Z,22.10
2022-09-02T10:04:44.735Z,21.80
2022-09-02T10:07:15.478Z,21.60
2022-09-02T10:09:42.804Z,21.60
2022-09-02T10:12:13.861Z,21.70
2022-09-02T10:14:49.735Z,21.70
2022-09-02T10:18:06.892Z,21.70
2022-09-02T10:21:11.593Z,22.30
2022-09-02T10:24:07.916Z,22.60
2022-09-02T10:26:53.022Z,22.80
2022-09-02T10:30:08.743Z,22.50
2022-09-02T10:32:47.755Z,22.30
2022-09-02T10:35:59.270Z,22.50
2022-09-02T10:38:31.982Z,22.20
2022-09-02T10:41:24.825Z,22.40
2022-09-02T10:44:05.534Z,22.30
2022-09-02T10:47:08.950Z,22.80
2022-09-02T10:49:49.836Z,22.60
2022-09-02T10:52:38.715Z,23.00
2022-09-02T10:55:17.424Z,22.70
2022-09-02T10:57:59.367Z,23.20
2022-09-02T11:00:31.573Z,23.30
2022-09-02T11:03:22.197Z,23.80
2022-09-02T11:05:54.952Z,24.20
2022-09-02T11:08:49.722Z,24.00
2022-09-02T11:11:38.205Z,23.80
2022-09-02T11:14:27.652Z,23.90
2022-09-02T11:17:12.911Z,23.80
2022-09-02T11:19:58.592Z,23.90
2022-09-02T11:22:40.115Z,24.10
2022-09-02T11:25:28.063Z,25.00
2022-09-02T11:28:04.046Z,25.00
2022-09-02T11:31:00.454Z,25.20
2022-09-02T11:33:43.895Z,23.50
2022-09-02T11:36:11.575Z,23.10
2022-09-02T11:38:54.881Z,22.70
2022-09-02T11:41:47.533Z,21.90
2022-09-02T11:45:09.408Z,21.90
2022-09-02T11:47:55.433Z,22.30
2022-09-02T11:50:46.242Z,22.00
2022-09-02T11:53:28.954Z,22.20
2022-09-02T11:56:05.721Z,22.10
2022-09-02T11:58:40.806Z,22.50
2022-09-02T12:01:24.955Z,21.70
2022-09-02T12:04:48.583Z,21.60
2022-09-02T12:07:09.552Z,22.30
2022-09-02T12:09:50.172Z,22.50
2022-09-02T12:12:38.929Z,22.60
2022-09-02T12:15:06.647Z,21.80
2022-09-02T12:17:40.793Z,21.10
2022-09-02T12:20:40.074Z,20.90
2022-09-02T12:23:10.848Z,21.20
2022-09-02T12:25:47.181Z,20.80
2022-09-02T12:28:27.181Z,20.50
2022-09-02T12:31:02.231Z,19.80
2022-09-02T12:33:45.308Z,19.40
2022-09-02T12:36:32.980Z,19.20
2022-09-02T12:39:24.868Z,19.20
2022-09-02T12:42:06.773Z,20.10
2022-09-02T12:44:49.316Z,20.20
2022-09-02T12:47:59.200Z,20.20
2022-09-02T12:50:56.365Z,20.20
2022-09-02T12:53:42.344Z,19.00
2022-09-02T12:56:24.783Z,18.50
2022-09-02T12:59:00.193Z,18.20
2022-09-02T13:02:14.813Z,18.50
2022-09-02T13:04:50.577Z,19.20
2022-09-02T13:07:36.305Z,19.70
2022-09-02T13:11:00.325Z,19.50
2022-09-02T13:13:55.345Z,19.10
2022-09-02T13:16:59.273Z,18.60
2022-09-02T13:19:44.522Z,18.20
2022-09-02T13:22:58.403Z,17.80
2022-09-02T13:25:52.958Z,17.40
2022-09-02T13:29:09.394Z,17.30
2022-09-02T13:31:36.748Z,17.30
2022-09-02T13:34:11.042Z,17.60
2022-09-02T13:36:43.975Z,17.70
2022-09-02T13:39:26.967Z,17.90
2022-09-02T13:41:54.887Z,18.10
2022-09-02T13:44:31.595Z,18.40
2022-09-02T13:47:16.323Z,18.60
2022-09-02T13:49:47.717Z,18.90
2022-09-02T13:52:51.172Z,19.20
2022-09-02T13:55:14.883Z,19.50
2022-09-02T13:57:58.958Z,19.80
2022-09-02T14:00:39.422Z,19.90
2022-09-02T14:03:18.292Z,20.00
2022-09-02T14:05:54.602Z,19.90
2022-09-02T14:08:27.711Z,20.10
2022-09-02T14:10:55.243Z,20.40
2022-09-02T14:13:23.709Z,20.50
2022-09-02T14:15:50.794Z,20.50
2022-09-02T14:18:21.452Z,20.20
2022-09-02T14:21:17.361Z,20.10
2022-09-02T14:23:51.233Z,19.90
2022-09-02T14:26:36.425Z,19.80
2022-09-02T14:29:08.398Z,20.10
2022-09-02T14:31:35.947Z,20.30
2022-09-02T14:34:04.548Z,20.20
2022-09-02T14:36:37.770Z,20.20
2022-09-02T14:39:16.753Z,20.20
2022-09-02T14:41:55.666Z,20.20
2022-09-02T14:44:36.320Z,20.50
2022-09-02T14:47:07.720Z,20.90
2022-09-02T14:49:41.730Z,21.30
2022-09-02T14:52:26.033Z,21.80
2022-09-02T14:54:55.845Z,21.90
2022-09-02T14:57:28.710Z,22.20
2022-09-02T15:00:09.528Z,22.60
2022-09-02T15:02:40.802Z,22.60
2022-09-02T15:05:14.363Z,22.30
2022-09-02T15:07:42.276Z,21.80
2022-09-02T15:10:09.708Z,21.60
2022-09-02T15:12:55.461Z,21.20
2022-09-02T15:15:22.545Z,20.50
2022-09-02T15:17:49.684Z,20.30
2022-09-02T15:20:17.584Z,19.80
2022-09-02T15:22:45.370Z,19.70
2022-09-02T15:25:12.765Z,19.80
2022-09-02T15:27:39.940Z,19.90
2022-09-02T15:30:09.218Z,19.80
2022-09-02T15:32:38.127Z,19.90
2022-09-02T15:35:06.996Z,19.80
2022-09-02T15:37:38.202Z,19.50
2022-09-02T15:40:08.649Z,19.10
2022-09-02T15:42:37.260Z,18.90
2022-09-02T15:45:08.660Z,18.80
2022-09-02T15:47:37.095Z,18.80
2022-09-02T15:50:08.150Z,18.80
2022-09-02T15:52:36.602Z,18.70
2022-09-02T15:55:04.753Z,18.80
2022-09-02T15:57:31.721Z,18.80
2022-09-02T15:59:58.773Z,18.90
2022-09-02T16:02:25.748Z,18.80
2022-09-02T16:04:52.927Z,18.90
2022-09-02T16:07:20.941Z,19.00
2022-09-02T16:09:48.010Z,19.30
2022-09-02T16:12:15.089Z,19.50
2022-09-02T16:14:42.006Z,19.70
2022-09-02T16:17:10.387Z,20.20
2022-09-02T16:19:37.315Z,20.40
2022-09-02T16:22:04.440Z,20.60
2022-09-02T16:24:31.740Z,20.80
2022-09-02T16:26:58.633Z,21.00
2022-09-02T16:29:28.265Z,21.20
2022-09-02T16:34:43.860Z,21.80
2022-09-02T16:37:10.689Z,22.10
2022-09-02T16:39:38.071Z,22.30
2022-09-02T16:42:05.539Z,22.80
2022-09-02T16:44:34.282Z,22.70
2022-09-02T16:47:01.397Z,22.70
2022-09-02T16:49:28.320Z,22.70
2022-09-02T16:51:58.533Z,22.90
2022-09-02T16:54:31.123Z,23.20
2022-09-02T16:57:00.957Z,23.40
2022-09-02T16:59:28.083Z,23.80
2022-09-02T17:01:55.476Z,24.10
2022-09-02T17:04:23.181Z,24.40
2022-09-02T17:06:50.445Z,24.70
2022-09-02T17:09:17.443Z,25.00
2022-09-02T17:11:45.718Z,25.30
2022-09-02T17:14:16.903Z,25.50
2022-09-02T17:16:50.248Z,25.70
2022-09-02T17:19:22.995Z,26.00
2022-09-02T17:21:52.699Z,26.40
2022-09-02T17:24:23.945Z,26.70
2022-09-02T17:26:55.584Z,27.10
2022-09-02T17:29:48.986Z,27.20
2022-09-02T17:32:17.859Z,27.60
2022-09-02T17:34:45.317Z,27.80
2022-09-02T17:37:12.833Z,28.10
2022-09-02T17:39:40.005Z,28.40
2022-09-02T17:42:07.208Z,28.80
2022-09-02T17:44:39.759Z,29.00
2022-09-02T17:47:17.352Z,29.30
2022-09-02T17:49:44.657Z,29.30
2022-09-02T17:52:15.838Z,29.60
2022-09-02T17:54:43.596Z,29.90
2022-09-02T17:57:42.408Z,30.00
2022-09-02T18:00:17.030Z,30.70
2022-09-02T18:03:16.107Z,30.90
2022-09-02T18:06:07.647Z,31.50
2022-09-02T18:08:55.680Z,31.60
2022-09-02T18:11:22.862Z,31.90
2022-09-02T18:14:24.313Z,32.00
2022-09-02T18:17:23.174Z,32.70
2022-09-02T18:20:09.416Z,33.10
2022-09-02T18:23:09.918Z,33.10
2022-09-02T18:26:17.705Z,33.70
2022-09-02T18:29:14.947Z,33.80
2022-09-02T18:31:47.640Z,33.90
2022-09-02T18:34:59.012Z,34.00
2022-09-02T18:38:13.556Z,34.80
2022-09-02T18:41:11.913Z,35.20
2022-09-02T18:44:17.313Z,35.30
2022-09-02T18:47:08.580Z,35.30
2022-09-02T18:49:38.862Z,36.00
2022-09-02T18:52:10.323Z,36.00
2022-09-02T18:55:06.972Z,36.30
2022-09-02T18:57:42.139Z,36.80
2022-09-02T19:00:13.938Z,36.80
2022-09-02T19:03:03.633Z,37.10
2022-09-02T19:05:34.039Z,37.50
2022-09-02T19:08:22.041Z,37.50
2022-09-02T19:10:49.634Z,37.70
2022-09-02T19:13:16.815Z,37.90
2022-09-02T19:15:43.924Z,38.10
2022-09-02T19:18:10.838Z,38.30
2022-09-02T19:20:38.698Z,38.60
2022-09-02T19:23:08.335Z,38.80
2022-09-02T19:25:38.734Z,39.10
2022-09-02T19:28:06.177Z,39.20
2022-09-02T19:30:37.215Z,39.30
2022-09-02T19:33:09.633Z,39.60
2022-09-02T19:35:38.112Z,39.90
2022-09-02T19:38:05.383Z,39.90
2022-09-02T19:40:33.859Z,40.10
2022-09-02T19:43:03.744Z,40.30
2022-09-02T19:45:36.304Z,40.60
2022-09-02T19:48:08.068Z,40.80
2022-09-02T19:50:42.274Z,41.00
2022-09-02T19:53:25.175Z,41.20
2022-09-02T19:55:52.440Z,41.80
2022-09-02T19:58:19.392Z,41.60
2022-09-02T20:00:47.729Z,41.80
2022-09-02T20:03:15.366Z,42.20
2022-09-02T20:05:42.832Z,42.30
2022-09-02T20:08:09.903Z,42.50
2022-09-02T20:10:38.901Z,42.60
2022-09-02T20:13:06.924Z,42.80
2022-09-02T20:15:38.080Z,43.00
2022-09-02T20:18:14.256Z,43.30
2022-09-02T20:20:52.810Z,43.50
2022-09-02T20:23:22.256Z,44.40
2022-09-02T20:26:30.153Z,43.60
2022-09-02T20:29:47.063Z,44.30
2022-09-02T20:32:52.440Z,44.30
2022-09-02T20:35:50.833Z,44.40
2022-09-02T20:38:45.291Z,44.20
2022-09-02T20:41:40.161Z,44.50
2022-09-02T20:44:23.623Z,44.70
2022-09-02T20:47:16.083Z,44.80
2022-09-02T20:50:34.948Z,44.80
2022-09-02T20:53:41.232Z,45.40
2022-09-02T20:56:23.929Z,45.60
2022-09-02T20:59:22.928Z,45.70
2022-09-02T21:01:55.781Z,45.80
2022-09-02T21:04:25.710Z,45.70
2022-09-02T21:07:25.840Z,46.10
2022-09-02T21:10:01.507Z,46.20
2022-09-02T21:12:41.634Z,46.30
2022-09-02T21:15:32.492Z,46.60
2022-09-02T21:18:11.172Z,46.70
2022-09-02T21:20:45.012Z,46.80
2022-09-02T21:23:31.874Z,47.00
2022-09-02T21:26:08.744Z,47.30
2022-09-02T21:28:42.951Z,47.40
2022-09-02T21:31:35.473Z,47.50
2022-09-02T21:34:15.773Z,47.90
2022-09-02T21:36:43.872Z,47.90
2022-09-02T21:39:18.295Z,47.80
2022-09-02T21:42:18.301Z,48.20
2022-09-02T21:45:08.771Z,48.70
2022-09-02T21:47:45.673Z,48.70
2022-09-02T21:50:36.344Z,49.20
2022-09-02T21:53:25.443Z,49.00
2022-09-02T21:56:57.471Z,48.70
2022-09-02T22:00:00.299Z,49.30
2022-09-02T22:02:54.847Z,49.40
2022-09-02T22:05:31.253Z,49.70
2022-09-02T22:08:09.767Z,49.50
2022-09-02T22:11:00.432Z,49.40
2022-09-02T22:13:31.821Z,49.60
2022-09-02T22:16:02.961Z,49.60
2022-09-02T22:18:42.291Z,49.80
2022-09-02T22:21:32.053Z,50.30
2022-09-02T22:24:01.549Z,50.70
2022-09-02T22:26:59.625Z,50.40
2022-09-02T22:29:37.660Z,50.70
2022-09-02T22:32:09.145Z,50.90
2022-09-02T22:34:44.512Z,51.10
2022-09-02T22:37:18.767Z,51.50
2022-09-02T22:39:52.787Z,51.60
2022-09-02T22:42:38.581Z,51.80
2022-09-02T22:45:31.623Z,52.80
2022-09-02T22:48:37.593Z,52.60
2022-09-02T22:51:30.368Z,52.20
2022-09-02T22:53:57.480Z,52.30
2022-09-02T22:56:41.103Z,52.30
2022-09-02T22:59:42.141Z,52.70
2022-09-02T23:02:27.872Z,53.00
2022-09-02T23:06:05.042Z,53.00
2022-09-02T23:08:37.110Z,53.20
2022-09-02T23:11:28.179Z,52.80
2022-09-02T23:14:16.914Z,53.30
2022-09-02T23:17:34.713Z,53.60
2022-09-02T23:20:29.175Z,53.70
2022-09-02T23:23:24.092Z,53.70
2022-09-02T23:26:09.838Z,53.60
2022-09-02T23:28:55.608Z,53.60
2022-09-02T23:32:05.210Z,53.90
2022-09-02T23:34:59.600Z,54.10
2022-09-02T23:37:52.455Z,54.20
2022-09-02T23:40:42.830Z,54.10
2022-09-02T23:43:15.224Z,54.10
2022-09-02T23:45:42.192Z,54.10
2022-09-02T23:48:15.054Z,54.30
2022-09-02T23:51:16.916Z,54.40
2022-09-02T23:54:11.171Z,54.60
2022-09-02T23:56:41.007Z,54.80
2022-09-02T23:59:43.369Z,54.50
